Time;durP1;ratioP1;P1;durP2;ratioP2;P2;SDS_P1;SDS_P2;PMS_P1;PMS_P2;Temp;Humidity;BMP_temperature;BMP_pressure;BME280_temperature;BME280_humidity;BME280_pressure;Samples;Min_cycle;Max_cycle;Signal;HPM_P1;HPM_P2
2022/11/07 00:02:24;;;;;;;7.43;3.20;;;;;;;10.32;100.00;100338.56;5032031;28;20033;-54
2022/11/07 00:04:49;;;;;;;12.68;3.10;;;;;;;10.41;100.00;100354.00;5032422;28;20041;-57
2022/11/07 00:07:14;;;;;;;10.27;3.17;;;;;;;10.60;100.00;100394.44;5032392;28;20463;-56
2022/11/07 00:09:40;;;;;;;8.90;2.90;;;;;;;10.67;100.00;100404.69;5032281;28;20091;-55
2022/11/07 00:12:05;;;;;;;9.40;3.45;;;;;;;10.39;100.00;100353.22;5032300;28;20034;-56
2022/11/07 00:14:31;;;;;;;12.68;3.42;;;;;;;10.52;100.00;100360.56;5032333;28;20124;-52
2022/11/07 00:16:56;;;;;;;11.35;2.88;;;;;;;10.82;100.00;100407.63;5032343;28;20029;-59
2022/11/07 00:19:22;;;;;;;9.40;3.72;;;;;;;10.84;100.00;100404.00;5032034;28;20534;-54
2022/11/07 00:21:48;;;;;;;7.57;2.88;;;;;;;10.47;100.00;100335.34;5032080;28;20462;-56
2022/11/07 00:24:16;;;;;;;7.82;3.38;;;;;;;10.84;100.00;100411.03;4998149;28;20056;-52
2022/11/07 00:26:42;;;;;;;12.55;3.53;;;;;;;10.77;100.00;100396.44;5014886;28;20033;-53
2022/11/07 00:29:12;;;;;;;8.77;2.75;;;;;;;10.36;100.00;100345.44;5014723;28;20044;-59
2022/11/07 00:31:37;;;;;;;10.70;3.15;;;;;;;10.58;100.00;100391.88;5014433;28;20057;-56
2022/11/07 00:34:02;;;;;;;16.65;3.03;;;;;;;10.59;100.00;100419.94;5014483;28;20465;-57
2022/11/07 00:36:28;;;;;;;8.68;3.13;;;;;;;10.59;100.00;100409.41;5032097;28;20128;-57
2022/11/07 00:38:53;;;;;;;10.60;3.28;;;;;;;10.48;100.00;100403.69;5031862;28;20129;-56
2022/11/07 00:41:19;;;;;;;8.85;3.63;;;;;;;10.50;100.00;100417.66;4998384;28;20044;-56
2022/11/07 00:43:45;;;;;;;10.18;3.63;;;;;;;10.27;100.00;100372.09;5032015;28;20048;-57
2022/11/07 00:46:11;;;;;;;12.32;2.75;;;;;;;10.54;100.00;100424.50;5032006;28;20404;-54
2022/11/07 00:48:37;;;;;;;9.20;2.78;;;;;;;10.40;100.00;100413.66;5014501;28;20034;-58
2022/11/07 00:51:17;;;;;;;11.80;3.20;;;;;;;10.47;100.00;100409.88;5014442;28;20495;-57
2022/11/07 00:53:43;;;;;;;11.93;2.73;;;;;;;10.18;100.00;100367.19;5032156;28;20041;-55
2022/11/07 00:56:10;;;;;;;10.80;3.20;;;;;;;10.51;100.00;100423.75;5032099;28;20051;-57
2022/11/07 00:58:36;;;;;;;11.38;2.83;;;;;;;10.10;100.00;100364.78;5014131;28;20044;-51
2022/11/07 01:01:14;;;;;;;9.45;3.67;;;;;;;10.14;100.00;100384.84;5031977;28;20037;-55
2022/11/07 01:06:26;;;;;;;10.13;2.40;;;;;;;10.21;100.00;100380.22;5031907;28;20048;-56
2022/11/07 01:08:53;;;;;;;6.85;2.35;;;;;;;10.26;100.00;100394.03;5031758;28;20041;-57
2022/11/07 01:11:19;;;;;;;8.65;2.58;;;;;;;10.61;100.00;100448.81;5031918;28;20053;-55
2022/11/07 01:13:44;;;;;;;6.60;2.60;;;;;;;10.65;100.00;100451.25;5014166;28;20041;-56
2022/11/07 01:16:10;;;;;;;14.13;3.28;;;;;;;10.72;100.00;100447.47;4997476;28;20037;-57
2022/11/07 01:18:35;;;;;;;10.30;2.72;;;;;;;10.41;100.00;100396.09;5031680;28;20041;-53
2022/11/07 01:21:05;;;;;;;10.25;3.03;;;;;;;10.76;100.00;100455.25;5031864;28;20042;-54
2022/11/07 01:23:30;;;;;;;10.55;3.08;;;;;;;10.47;100.00;100425.66;5031295;28;20406;-56
2022/11/07 01:25:55;;;;;;;10.25;3.05;;;;;;;10.44;100.00;100436.31;5031107;28;20144;-53
2022/11/07 01:28:20;;;;;;;13.32;2.97;;;;;;;10.76;100.00;100484.22;5031468;28;20077;-58
2022/11/07 01:30:46;;;;;;;12.80;3.67;;;;;;;10.67;100.00;100470.50;5033745;28;20112;-55
2022/11/07 01:33:12;;;;;;;14.88;3.13;;;;;;;10.57;100.00;100463.00;5035097;28;20041;-55
2022/11/07 01:35:37;;;;;;;13.27;2.60;;;;;;;10.55;100.00;100449.03;5001076;28;20033;-57
2022/11/07 01:38:03;;;;;;;12.65;3.45;;;;;;;10.53;100.00;100457.00;5035188;28;20116;-57
2022/11/07 01:40:29;;;;;;;13.45;3.13;;;;;;;10.55;100.00;100478.84;5016768;28;20511;-53
2022/11/07 01:42:54;;;;;;;11.35;3.97;;;;;;;10.12;100.00;100405.06;5034949;28;20060;-53
2022/11/07 01:45:25;;;;;;;8.70;3.20;;;;;;;10.52;100.00;100472.84;5017178;28;20029;-55
2022/11/07 01:47:52;;;;;;;9.27;2.72;;;;;;;10.18;100.00;100411.91;5035310;28;20033;-55
2022/11/07 01:50:17;;;;;;;6.75;2.55;;;;;;;10.13;100.00;100419.94;5017481;28;20044;-59
2022/11/07 01:52:45;;;;;;;8.43;3.33;;;;;;;10.42;100.00;100490.75;5034751;28;20397;-56
2022/11/07 01:55:17;;;;;;;10.23;2.65;;;;;;;10.43;100.00;100474.03;5017067;28;20040;-56
2022/11/07 01:57:53;;;;;;;9.40;2.90;;;;;;;10.42;100.00;100469.69;5016838;28;20044;-55
2022/11/07 02:00:20;;;;;;;10.48;3.45;;;;;;;10.38;100.00;100459.34;5016862;28;20111;-57
2022/11/07 02:02:47;;;;;;;10.35;2.70;;;;;;;10.06;100.00;100403.53;5034430;28;20033;-57
2022/11/07 02:05:27;;;;;;;12.05;3.40;;;;;;;10.40;100.00;100471.53;5016875;28;20476;-58
2022/11/07 02:07:53;;;;;;;9.95;3.03;;;;;;;10.05;100.00;100409.69;5034447;28;20029;-57
2022/11/07 02:10:19;;;;;;;11.50;3.78;;;;;;;10.41;100.00;100467.13;5016668;28;20108;-55
2022/11/07 02:12:45;;;;;;;9.45;3.30;;;;;;;10.12;100.00;100410.31;5016491;28;20481;-57
2022/11/07 02:15:10;;;;;;;8.90;2.80;;;;;;;10.16;100.00;100412.78;5034369;28;20044;-52
2022/11/07 02:17:35;;;;;;;12.30;3.08;;;;;;;10.50;100.00;100470.28;5016875;28;20038;-54
2022/11/07 02:20:01;;;;;;;9.50;2.85;;;;;;;10.49;100.00;100478.22;5034137;28;20396;-54
2022/11/07 02:22:44;;;;;;;13.68;3.20;;;;;;;10.51;100.00;100479.88;5033985;28;20068;-54
2022/11/07 02:25:15;;;;;;;8.18;3.08;;;;;;;10.54;100.00;100476.25;5034101;28;20496;-58
2022/11/07 02:27:42;;;;;;;15.40;2.97;;;;;;;10.21;100.00;100417.03;5034271;28;20404;-55
2022/11/07 02:30:11;;;;;;;13.65;3.47;;;;;;;10.67;100.00;100485.44;5034261;28;20036;-55
2022/11/07 02:32:37;;;;;;;12.35;2.97;;;;;;;10.70;100.00;100493.22;5016523;28;20095;-53
2022/11/07 02:35:05;;;;;;;9.00;3.22;;;;;;;10.40;100.00;100439.09;5034034;28;20030;-54
2022/11/07 02:37:33;;;;;;;8.95;2.72;;;;;;;10.36;100.00;100398.06;5033794;28;20448;-59
2022/11/07 02:40:00;;;;;;;11.60;3.63;;;;;;;10.66;100.00;100466.13;5016124;28;20026;-56
2022/11/07 02:42:42;;;;;;;9.82;2.63;;;;;;;10.49;100.00;100415.06;5016280;28;20041;-55
2022/11/07 02:45:09;;;;;;;12.48;3.35;;;;;;;10.49;100.00;100418.56;5018564;28;20033;-54
2022/11/07 02:47:34;;;;;;;10.57;3.05;;;;;;;10.49;100.00;100407.16;5016088;28;20056;-57
2022/11/07 02:50:00;;;;;;;12.65;3.00;;;;;;;10.62;100.00;100440.00;5016086;28;20445;-54
2022/11/07 02:52:25;;;;;;;8.57;2.58;;;;;;;10.94;100.00;100500.16;5033353;28;20056;-54
2022/11/07 02:54:50;;;;;;;6.95;2.88;;;;;;;10.55;100.00;100430.63;5034066;28;20072;-55
2022/11/07 02:57:15;;;;;;;10.32;3.10;;;;;;;10.86;100.00;100490.84;5016144;28;20048;-55
2022/11/07 02:59:41;;;;;;;12.75;3.65;;;;;;;10.77;100.00;100483.31;5033714;28;20034;-54
2022/11/07 03:02:06;;;;;;;11.38;3.05;;;;;;;10.75;100.00;100478.09;5033315;28;20029;-56
2022/11/07 03:04:31;;;;;;;10.20;2.50;;;;;;;10.40;100.00;100439.09;4999179;28;20071;-54
2022/11/07 03:06:57;;;;;;;9.07;3.08;;;;;;;10.49;100.00;100465.94;5033343;28;20037;-54
2022/11/07 03:09:22;;;;;;;10.18;3.00;;;;;;;10.62;100.00;100485.59;5033231;28;20125;-53
2022/11/07 03:11:47;;;;;;;10.85;3.60;;;;;;;10.60;100.00;100492.69;5033128;28;20067;-58
2022/11/07 03:14:13;;;;;;;9.75;2.90;;;;;;;10.57;100.00;100489.31;5015649;28;20087;-57
2022/11/07 03:16:38;;;;;;;9.63;3.10;;;;;;;10.59;100.00;100482.25;5033237;28;20041;-54
2022/11/07 03:19:03;;;;;;;13.43;3.40;;;;;;;10.39;100.00;100456.66;5033247;28;20033;-56
2022/11/07 03:21:29;;;;;;;8.52;2.42;;;;;;;10.57;100.00;100486.69;5032819;28;20030;-55
2022/11/07 03:23:54;;;;;;;14.80;3.15;;;;;;;10.56;100.00;100479.72;5032946;28;20045;-57
2022/11/07 03:26:19;;;;;;;12.43;2.53;;;;;;;10.29;100.00;100449.16;5033126;28;20053;-55
2022/11/07 03:28:45;;;;;;;6.78;2.50;;;;;;;10.11;100.00;100408.59;5033141;28;20033;-57
2022/11/07 03:31:10;;;;;;;10.80;3.17;;;;;;;10.20;100.00;100420.56;5015374;28;20025;-56
2022/11/07 03:33:36;;;;;;;9.13;2.70;;;;;;;10.60;100.00;100474.25;5015277;28;20444;-57
2022/11/07 03:36:01;;;;;;;13.10;2.83;;;;;;;10.60;100.00;100490.06;5032787;28;20068;-55
2022/11/07 03:38:26;;;;;;;9.32;3.70;;;;;;;10.62;100.00;100480.31;5015525;28;20047;-55
2022/11/07 03:40:52;;;;;;;9.30;2.65;;;;;;;10.55;100.00;100489.38;5015193;28;20060;-59
2022/11/07 03:43:17;;;;;;;13.00;2.33;;;;;;;10.27;100.00;100436.09;5032595;28;20041;-57
2022/11/07 03:45:42;;;;;;;14.13;3.15;;;;;;;10.24;100.00;100437.97;5015025;28;20033;-52
2022/11/07 03:48:08;;;;;;;11.07;3.10;;;;;;;10.43;100.00;100471.41;5014960;28;20043;-52
2022/11/07 03:50:33;;;;;;;12.13;2.88;;;;;;;10.58;100.00;100473.47;5032366;28;20091;-53
2022/11/07 03:52:58;;;;;;;12.55;3.17;;;;;;;10.66;100.00;100494.22;5014433;28;20397;-58
2022/11/07 03:55:23;;;;;;;11.30;3.08;;;;;;;10.68;100.00;100487.16;5032547;28;20045;-55
2022/11/07 03:57:49;;;;;;;12.48;3.13;;;;;;;10.68;100.00;100490.63;5032507;28;20112;-60
2022/11/07 04:00:14;;;;;;;12.52;3.65;;;;;;;10.35;100.00;100441.91;5032519;28;20457;-58
2022/11/07 04:02:41;;;;;;;14.48;2.90;;;;;;;10.36;100.00;100425.19;5032257;28;20068;-52
2022/11/07 04:05:06;;;;;;;11.10;2.58;;;;;;;10.40;100.00;100407.53;5032405;28;20037;-53
2022/11/07 04:07:32;;;;;;;13.38;3.47;;;;;;;10.73;100.00;100490.47;5032304;28;20036;-50
2022/11/07 04:09:57;;;;;;;10.07;2.95;;;;;;;10.38;100.00;100426.00;5032518;28;20033;-52
2022/11/07 04:17:52;;;;;;;13.98;3.50;;;;;;;10.78;100.00;100495.53;5017601;28;20500;-59
2022/11/07 04:20:18;;;;;;;16.02;4.35;;;;;;;10.82;100.00;100495.38;5032466;28;20037;-54
2022/11/07 04:22:43;;;;;;;13.00;3.38;;;;;;;10.50;100.00;100436.06;5032091;28;20041;-58
2022/11/07 04:25:09;;;;;;;12.25;3.13;;;;;;;10.62;100.00;100467.16;5032233;28;20064;-53
2022/11/07 04:27:43;;;;;;;13.15;3.72;;;;;;;10.85;100.00;100505.78;5032062;28;20033;-57
2022/11/07 04:30:22;;;;;;;17.27;3.47;;;;;;;10.60;100.00;100450.56;5032108;28;20385;-52
2022/11/07 04:32:56;;;;;;;13.85;2.92;;;;;;;10.80;100.00;100497.19;5032315;28;20065;-51
2022/11/07 04:35:23;;;;;;;13.32;3.08;;;;;;;10.58;100.00;100436.63;5014598;28;20029;-54
2022/11/07 04:37:49;;;;;;;9.23;3.42;;;;;;;10.86;100.00;100494.31;5014614;28;20052;-57
2022/11/07 04:40:15;;;;;;;15.65;3.50;;;;;;;10.87;100.00;100479.38;5031957;28;20485;-56
2022/11/07 04:42:41;;;;;;;16.52;3.30;;;;;;;10.88;100.00;100481.09;5014247;28;20038;-55
2022/11/07 04:45:07;;;;;;;10.98;3.03;;;;;;;10.56;100.00;100430.59;5032397;28;20369;-56
2022/11/07 04:47:32;;;;;;;15.23;3.35;;;;;;;10.70;100.00;100459.00;5014340;28;20037;-58
2022/11/07 04:49:58;;;;;;;16.00;4.32;;;;;;;10.66;100.00;100446.84;5032046;28;20113;-58
2022/11/07 04:52:23;;;;;;;12.43;2.40;;;;;;;10.97;100.00;100489.50;5032034;28;20040;-54
2022/11/07 04:54:48;;;;;;;17.95;3.35;;;;;;;11.01;100.00;100498.13;5014174;28;20036;-52
2022/11/07 04:57:14;;;;;;;11.05;2.50;;;;;;;11.08;100.00;100502.25;5014098;28;20076;-53
2022/11/07 04:59:40;;;;;;;13.55;2.63;;;;;;;10.77;100.00;100460.44;5014230;28;20030;-54
2022/11/07 05:02:05;;;;;;;15.85;3.25;;;;;;;11.10;100.00;100518.84;5032026;28;20493;-53
2022/11/07 05:04:31;;;;;;;11.50;3.00;;;;;;;10.74;100.00;100450.91;5031942;28;20554;-54
2022/11/07 05:06:56;;;;;;;11.27;3.65;;;;;;;11.06;100.00;100507.56;5035629;28;20088;-54
2022/11/07 05:09:21;;;;;;;14.45;4.32;;;;;;;11.07;100.00;100511.06;5017965;28;20087;-55
2022/11/07 05:11:47;;;;;;;16.52;4.10;;;;;;;11.09;100.00;100514.50;5035404;28;20042;-51
2022/11/07 05:14:13;;;;;;;13.73;3.45;;;;;;;11.03;100.00;100501.59;5035781;28;20385;-56
2022/11/07 05:16:40;;;;;;;13.10;2.67;;;;;;;11.03;100.00;100501.59;5017961;28;20037;-57
2022/11/07 05:19:05;;;;;;;18.17;3.80;;;;;;;11.02;100.00;100527.06;5017741;28;20029;-56
2022/11/07 05:21:31;;;;;;;13.30;3.30;;;;;;;11.02;100.00;100521.78;5001249;28;20120;-56
2022/11/07 05:23:56;;;;;;;14.50;2.90;;;;;;;11.01;100.00;100517.44;5035250;28;20103;-56
2022/11/07 05:26:21;;;;;;;13.43;3.22;;;;;;;10.97;100.00;100518.47;5034901;28;20073;-56
2022/11/07 05:28:47;;;;;;;17.85;2.97;;;;;;;10.70;100.00;100459.00;5035657;28;20045;-55
2022/11/07 05:31:16;;;;;;;18.55;3.50;;;;;;;11.06;100.00;100525.16;5035355;28;20124;-54
2022/11/07 05:33:42;;;;;;;11.63;3.47;;;;;;;10.74;100.00;100479.84;5035563;28;20359;-56
2022/11/07 05:36:15;;;;;;;13.52;3.58;;;;;;;11.10;100.00;100521.47;5017479;28;20029;-53
2022/11/07 05:38:43;;;;;;;15.75;3.60;;;;;;;10.81;100.00;100456.78;5034861;28;20041;-56
2022/11/07 05:41:08;;;;;;;16.20;3.55;;;;;;;11.10;100.00;100503.03;5017468;28;20034;-56
2022/11/07 05:43:34;;;;;;;13.10;3.20;;;;;;;10.83;100.00;100446.22;5034759;28;20397;-53
2022/11/07 05:46:00;;;;;;;13.80;3.15;;;;;;;10.94;100.00;100468.56;5035007;28;20080;-57
2022/11/07 05:48:25;;;;;;;10.82;3.47;;;;;;;10.61;100.00;100422.50;5034900;28;20294;-55
2022/11/07 05:50:50;;;;;;;13.82;3.03;;;;;;;11.17;100.00;100512.41;5035066;28;20034;-55
2022/11/07 05:53:16;;;;;;;23.08;4.40;;;;;;;11.27;100.00;100529.56;5034457;28;20042;-57
2022/11/07 05:55:41;;;;;;;13.13;3.90;;;;;;;10.91;100.00;100463.41;5034707;28;20040;-52
2022/11/07 05:58:08;;;;;;;15.90;4.53;;;;;;;11.01;100.00;100474.41;5034919;28;20033;-57
2022/11/07 06:00:33;;;;;;;8.88;3.13;;;;;;;11.32;100.00;100532.03;5034797;28;20121;-52
2022/11/07 06:02:59;;;;;;;14.27;4.18;;;;;;;11.30;100.00;100529.44;5034706;28;20132;-55
2022/11/07 06:05:24;;;;;;;13.32;3.45;;;;;;;11.29;100.00;100536.47;5032600;28;20037;-54
2022/11/07 06:07:50;;;;;;;17.55;4.82;;;;;;;11.26;100.00;100534.00;5018917;28;20030;-52
2022/11/07 06:10:15;;;;;;;17.80;4.53;;;;;;;11.27;100.00;100534.81;5014680;28;20101;-53
2022/11/07 06:12:41;;;;;;;19.85;4.47;;;;;;;11.19;100.00;100515.84;5018572;28;20350;-52
2022/11/07 06:15:07;;;;;;;13.95;5.25;;;;;;;11.14;100.00;100520.44;5014761;28;20037;-57
2022/11/07 06:17:32;;;;;;;10.25;3.30;;;;;;;10.99;100.00;100481.53;5014251;28;20345;-53
2022/11/07 06:19:58;;;;;;;19.35;4.43;;;;;;;11.15;100.00;100511.59;5020376;28;20115;-50
2022/11/07 06:22:24;;;;;;;14.00;4.30;;;;;;;11.06;100.00;100483.03;5016489;28;20039;-54
2022/11/07 06:24:50;;;;;;;17.67;4.75;;;;;;;11.12;100.00;100485.41;5033941;28;20060;-59
2022/11/07 06:27:16;;;;;;;14.48;4.35;;;;;;;11.17;100.00;100486.06;5034231;28;20029;-56
2022/11/07 06:29:41;;;;;;;12.07;3.72;;;;;;;11.40;100.00;100540.47;5034017;28;20499;-56
2022/11/07 06:32:06;;;;;;;11.98;4.25;;;;;;;11.39;100.00;100534.34;5016261;28;20036;-55
2022/11/07 06:34:32;;;;;;;11.05;3.47;;;;;;;11.32;100.00;100522.34;5000026;28;20393;-56
2022/11/07 06:36:57;;;;;;;13.52;3.67;;;;;;;11.33;100.00;100539.84;5033859;28;20107;-52
2022/11/07 06:39:22;;;;;;;12.52;3.20;;;;;;;11.27;100.00;100525.16;5015377;28;20542;-57
2022/11/07 06:41:48;;;;;;;15.07;3.65;;;;;;;11.12;100.00;100506.50;5033433;28;20053;-57
2022/11/07 06:44:14;;;;;;;14.05;4.18;;;;;;;10.92;100.00;100480.91;5033351;28;20480;-57
2022/11/07 06:46:39;;;;;;;15.52;4.40;;;;;;;11.16;100.00;100522.09;5014968;28;20061;-53
2022/11/07 06:49:05;;;;;;;14.25;3.92;;;;;;;11.19;100.00;100536.91;5033009;28;20057;-55
2022/11/07 06:51:30;;;;;;;12.32;2.97;;;;;;;11.17;100.00;100542.25;5032037;28;20065;-56
2022/11/07 06:53:56;;;;;;;14.20;3.53;;;;;;;10.85;100.00;100475.97;5033160;28;20061;-53
2022/11/07 06:56:22;;;;;;;10.43;3.33;;;;;;;11.18;100.00;100538.69;5033291;28;20041;-54
2022/11/07 06:58:47;;;;;;;11.95;3.25;;;;;;;10.89;100.00;100488.06;5033299;28;20446;-54
2022/11/07 07:01:13;;;;;;;10.88;3.33;;;;;;;11.12;100.00;100527.56;5015841;28;20413;-58
2022/11/07 07:03:40;;;;;;;18.33;3.13;;;;;;;11.16;100.00;100537.91;5015769;28;20056;-57
2022/11/07 07:06:08;;;;;;;15.07;3.55;;;;;;;10.87;100.00;100496.03;5032852;28;20474;-57
2022/11/07 07:08:33;;;;;;;17.95;3.40;;;;;;;10.89;100.00;100498.59;5015543;28;20033;-56
2022/11/07 07:11:04;;;;;;;15.55;3.58;;;;;;;11.11;100.00;100534.59;5015913;28;20465;-54
2022/11/07 07:13:29;;;;;;;14.52;3.22;;;;;;;10.87;100.00;100500.44;5015586;28;20392;-55
2022/11/07 07:15:56;;;;;;;11.30;3.20;;;;;;;11.19;100.00;100568.53;5033205;28;20040;-56
2022/11/07 07:18:22;;;;;;;14.35;3.50;;;;;;;10.90;100.00;100511.72;5033054;28;20527;-55
2022/11/07 07:20:48;;;;;;;14.35;3.47;;;;;;;11.26;100.00;100554.22;5015398;28;20032;-55
2022/11/07 07:23:13;;;;;;;12.05;2.83;;;;;;;11.29;100.00;100562.00;5015074;28;20041;-57
2022/11/07 07:25:39;;;;;;;13.93;3.40;;;;;;;11.22;100.00;100531.53;5032888;28;20045;-57
2022/11/07 07:28:04;;;;;;;9.15;2.92;;;;;;;11.09;100.00;100519.78;5032279;28;20116;-53
2022/11/07 07:30:29;;;;;;;9.35;3.08;;;;;;;11.12;100.00;100523.13;5032875;28;20042;-58
2022/11/07 07:32:55;;;;;;;13.05;2.50;;;;;;;11.14;100.00;100516.03;5032912;28;20044;-55
2022/11/07 07:35:20;;;;;;;19.75;3.70;;;;;;;11.17;100.00;100531.72;5032803;28;20041;-56
2022/11/07 07:37:50;;;;;;;12.20;2.50;;;;;;;11.54;100.00;100585.56;5032766;28;20507;-55
2022/11/07 07:40:16;;;;;;;12.80;2.90;;;;;;;11.57;100.00;100583.69;5032784;28;20492;-53
2022/11/07 07:42:42;;;;;;;14.07;3.28;;;;;;;11.61;100.00;100595.84;5032761;28;20083;-55
2022/11/07 07:45:10;;;;;;;8.63;3.08;;;;;;;11.64;100.00;100602.75;5015024;28;20155;-56
2022/11/07 07:47:35;;;;;;;14.15;4.05;;;;;;;11.71;100.00;100593.69;5032221;28;20136;-57
2022/11/07 07:50:00;;;;;;;10.95;3.13;;;;;;;11.51;100.00;100559.34;5030389;28;20120;-58
2022/11/07 07:52:26;;;;;;;6.93;2.45;;;;;;;11.80;100.00;100612.63;5030466;28;20558;-57
2022/11/07 07:54:51;;;;;;;7.35;3.08;;;;;;;11.85;100.00;100599.25;5014086;28;20042;-58
2022/11/07 07:57:16;;;;;;;11.00;2.40;;;;;;;11.86;100.00;100608.88;5031615;28;20087;-58
2022/11/07 07:59:42;;;;;;;10.82;2.88;;;;;;;11.61;100.00;100564.19;5030924;28;20033;-59
2022/11/07 08:02:10;;;;;;;11.23;3.13;;;;;;;11.80;100.00;100590.69;5031512;28;20043;-59
2022/11/07 08:04:35;;;;;;;13.48;3.30;;;;;;;11.64;100.00;100560.56;5013698;28;20075;-58
2022/11/07 08:07:00;;;;;;;11.85;3.10;;;;;;;11.74;100.00;100578.59;5013479;28;20076;-59
2022/11/07 08:09:26;;;;;;;10.70;2.83;;;;;;;11.76;100.00;100570.66;5031237;28;20512;-59
2022/11/07 08:11:51;;;;;;;9.68;3.58;;;;;;;12.15;100.00;100640.19;5031226;28;20044;-60
2022/11/07 08:14:17;;;;;;;11.43;3.20;;;;;;;12.22;100.00;100640.81;5031185;28;20463;-57
2022/11/07 08:16:42;;;;;;;14.18;3.05;;;;;;;12.05;100.00;100598.44;5031406;28;20034;-57
2022/11/07 08:19:07;;;;;;;9.85;2.92;;;;;;;12.41;100.00;100657.56;5030970;28;20033;-60
2022/11/07 08:21:33;;;;;;;12.93;3.00;;;;;;;12.16;100.00;100604.97;5013368;28;20192;-60
2022/11/07 08:23:59;;;;;;;10.73;2.78;;;;;;;12.11;100.00;100593.75;5013279;28;20041;-54
2022/11/07 08:26:25;;;;;;;8.45;3.00;;;;;;;12.34;100.00;100641.16;5030875;28;20084;-56
2022/11/07 08:28:52;;;;;;;12.68;3.65;;;;;;;12.39;100.00;100664.69;5031307;28;20443;-59
2022/11/07 08:31:18;;;;;;;11.48;3.10;;;;;;;12.41;100.00;100652.28;5031105;28;20030;-58
2022/11/07 08:33:44;;;;;;;16.25;4.18;;;;;;;12.39;100.00;100660.28;5031027;28;20167;-58
2022/11/07 08:36:09;;;;;;;11.95;4.03;;;;;;;12.28;100.00;100640.53;5013226;28;20057;-57
2022/11/07 08:38:35;;;;;;;10.63;3.85;;;;;;;12.41;100.00;100682.19;5013520;28;20041;-56
2022/11/07 08:41:00;;;;;;;10.05;3.20;;;;;;;12.40;100.00;100669.91;5035300;28;20026;-58
2022/11/07 08:43:26;;;;;;;15.70;3.13;;;;;;;12.36;100.00;100655.13;5034979;28;20503;-59
2022/11/07 08:45:52;;;;;;;12.25;3.20;;;;;;;12.40;100.00;100661.16;5035146;28;20037;-57
2022/11/07 08:48:17;;;;;;;10.68;2.80;;;;;;;12.52;100.00;100681.72;5035059;28;20033;-59
2022/11/07 08:50:43;;;;;;;16.27;2.97;;;;;;;12.50;100.00;100677.44;5017001;28;20119;-55
2022/11/07 08:53:09;;;;;;;8.68;3.85;;;;;;;12.56;100.00;100675.38;5034639;28;20515;-58
2022/11/07 08:55:34;;;;;;;9.27;2.88;;;;;;;12.56;100.00;100693.00;5016941;28;20095;-58
2022/11/07 08:58:01;;;;;;;9.45;3.25;;;;;;;12.62;100.00;100674.25;5000653;28;20046;-58
2022/11/07 09:00:27;;;;;;;12.82;3.47;;;;;;;12.72;100.00;100691.44;5017248;28;20048;-58
2022/11/07 09:02:52;;;;;;;11.43;3.17;;;;;;;12.56;100.00;100648.13;5034497;28;20041;-59
2022/11/07 09:05:17;;;;;;;9.05;2.92;;;;;;;12.73;100.00;100649.09;5034561;28;20112;-58
2022/11/07 09:07:43;;;;;;;9.63;2.97;;;;;;;13.09;100.00;100691.56;5034387;28;20037;-57
2022/11/07 09:10:10;;;;;;;11.57;2.92;;;;;;;13.08;100.00;100702.19;5034811;28;20033;-52
2022/11/07 09:12:35;;;;;;;15.07;3.72;;;;;;;12.77;100.00;100655.13;5034548;28;20091;-57
2022/11/07 09:15:01;;;;;;;11.55;3.38;;;;;;;13.02;100.00;100707.75;5016404;28;20033;-53
2022/11/07 09:17:26;;;;;;;12.15;3.50;;;;;;;12.97;100.00;100707.94;5034367;28;20119;-54
2022/11/07 09:19:51;;;;;;;10.95;3.53;;;;;;;12.86;100.00;100708.41;5034495;28;20038;-59
2022/11/07 09:22:17;;;;;;;8.88;2.65;;;;;;;12.81;100.00;100710.38;5016591;28;20481;-59
2022/11/07 09:24:42;;;;;;;16.98;3.58;;;;;;;12.39;100.00;100657.66;5034190;28;20061;-54
2022/11/07 09:27:08;;;;;;;12.15;3.45;;;;;;;12.57;100.00;100713.22;5034337;28;20041;-58
2022/11/07 09:29:33;;;;;;;13.35;3.70;;;;;;;12.48;100.00;100708.31;5034069;28;20041;-58
2022/11/07 09:31:58;;;;;;;11.65;2.97;;;;;;;12.46;100.00;100696.97;5034064;28;20038;-59
2022/11/07 09:34:24;;;;;;;12.70;3.35;;;;;;;12.60;100.00;100703.41;5033846;28;20517;-57
2022/11/07 09:36:49;;;;;;;11.93;3.17;;;;;;;12.71;100.00;100702.91;5016178;28;20044;-55
2022/11/07 09:39:15;;;;;;;8.95;2.88;;;;;;;12.85;100.00;100711.97;5016268;28;20556;-52
2022/11/07 09:41:40;;;;;;;10.45;2.85;;;;;;;12.94;100.00;100711.56;5034047;28;20124;-53
2022/11/07 09:44:11;;;;;;;14.90;3.83;;;;;;;12.98;100.00;100710.50;5033814;28;20073;-53
2022/11/07 09:46:52;;;;;;;;;;;;;;;12.98;100.00;100728.16;5034073;28;20114;-58
2022/11/07 09:49:21;;;;;;;9.52;2.63;;;;;;;12.71;100.00;100690.56;5033641;28;19920;-54
2022/11/07 09:51:54;;;;;;;10.85;2.85;;;;;;;12.67;100.00;100680.19;5015191;28;20051;-56
2022/11/07 09:54:21;;;;;;;11.65;3.35;;;;;;;12.91;100.00;100731.97;5015592;28;20065;-56
2022/11/07 09:56:46;;;;;;;14.68;3.00;;;;;;;12.47;100.00;100636.19;5016212;28;20116;-52
2022/11/07 09:59:40;;;;;;;12.13;3.38;;;;;;;12.98;100.00;100726.38;5015747;28;20168;-54
2022/11/07 10:02:14;;;;;;;12.32;2.95;;;;;;;13.11;100.00;100731.13;5012741;28;20053;-52
2022/11/07 10:04:39;;;;;;;12.82;3.20;;;;;;;13.28;100.00;100733.91;5015773;28;20378;-55
2022/11/07 10:07:11;;;;;;;10.27;3.10;;;;;;;13.40;100.00;100735.94;5033653;28;20037;-56
2022/11/07 10:09:55;;;;;;;12.73;3.63;;;;;;;13.35;100.00;100741.47;5033514;28;20037;-56
2022/11/07 10:12:46;;;;;;;11.35;3.08;;;;;;;13.42;100.00;100729.69;5015773;28;20040;-55
2022/11/07 10:15:43;;;;;;;14.25;3.40;;;;;;;13.34;100.00;100688.66;5015615;28;20074;-56
2022/11/07 10:18:30;;;;;;;14.50;3.63;;;;;;;13.84;100.00;100741.84;5032904;28;20037;-56
2022/11/07 10:21:02;;;;;;;8.75;3.10;;;;;;;13.96;100.00;100760.63;5033344;28;20220;-58
2022/11/07 10:23:28;;;;;;;12.02;3.00;;;;;;;13.99;100.00;100747.25;5015495;28;20051;-57
2022/11/07 10:26:09;;;;;;;8.25;3.25;;;;;;;13.97;100.00;100754.44;5033070;28;20128;-53
2022/11/07 10:29:17;;;;;;;13.00;3.10;;;;;;;13.93;100.00;100767.84;5033052;28;20038;-57
2022/11/07 10:31:46;;;;;;;15.05;3.15;;;;;;;13.95;100.00;100758.91;4985256;28;20049;-59
2022/11/07 10:34:34;;;;;;;14.98;2.95;;;;;;;13.97;100.00;100758.84;5015250;28;20041;-57
2022/11/07 10:36:59;;;;;;;11.18;3.10;;;;;;;13.62;100.00;100712.91;5015106;28;20045;-56
2022/11/07 10:39:24;;;;;;;12.10;2.97;;;;;;;13.65;100.00;100739.22;5032867;28;20060;-56
2022/11/07 10:41:56;;;;;;;10.15;3.25;;;;;;;13.78;100.00;100755.34;5015263;28;20030;-57
2022/11/07 10:44:23;;;;;;;12.98;3.97;;;;;;;13.54;100.00;100723.81;5032719;28;20479;-56
2022/11/07 10:46:49;;;;;;;13.77;3.03;;;;;;;13.72;100.00;100768.88;5032492;28;20164;-54
2022/11/07 10:49:29;;;;;;;11.88;3.33;;;;;;;13.77;100.00;100769.53;5014780;28;20108;-59
2022/11/07 10:52:05;;;;;;;13.35;3.08;;;;;;;13.86;100.00;100769.09;5014988;28;20038;-55
2022/11/07 10:54:31;;;;;;;10.75;2.95;;;;;;;13.51;100.00;100708.09;5014798;28;20069;-56
2022/11/07 10:57:01;;;;;;;10.00;2.92;;;;;;;13.56;100.00;100715.81;5032478;28;20061;-58
2022/11/07 10:59:28;;;;;;;9.93;2.55;;;;;;;13.83;100.00;100775.41;5032345;28;20032;-56
2022/11/07 11:01:55;;;;;;;15.93;3.95;;;;;;;13.77;100.00;100785.41;5014233;28;20104;-53
2022/11/07 11:04:22;;;;;;;11.38;3.28;;;;;;;13.37;100.00;100718.44;5031487;28;20052;-57
2022/11/07 11:06:56;;;;;;;10.82;3.38;;;;;;;13.62;100.00;100776.38;5032281;28;20120;-55
2022/11/07 11:09:25;;;;;;;13.32;3.33;;;;;;;13.29;100.00;100728.53;5032291;28;20128;-54
2022/11/07 11:11:50;;;;;;;12.02;3.55;;;;;;;13.19;100.00;100729.84;5015003;28;20064;-56
2022/11/07 11:14:19;;;;;;;13.15;3.58;;;;;;;13.25;100.00;100755.19;5014393;28;20469;-54
2022/11/07 11:16:47;;;;;;;18.33;3.88;;;;;;;13.00;100.00;100713.06;5032575;28;20033;-56
2022/11/07 11:19:20;;;;;;;15.95;4.40;;;;;;;13.15;100.00;100730.06;5014672;28;20041;-54
2022/11/07 11:21:48;;;;;;;11.60;3.63;;;;;;;13.25;100.00;100734.03;5032013;28;20038;-52